createdAt,value
2023-03-15T00:02:27.502Z,4.90
2023-03-15T00:04:55.528Z,5.09
2023-03-15T00:07:25.954Z,4.90
2023-03-15T00:09:53.981Z,4.62
2023-03-15T00:12:23.173Z,4.85
2023-03-15T00:14:51.375Z,4.60
2023-03-15T00:17:19.303Z,4.59
2023-03-15T00:19:48.110Z,4.57
2023-03-15T00:22:16.103Z,4.57
2023-03-15T00:24:45.499Z,4.58
2023-03-15T00:27:13.402Z,4.45
2023-03-15T00:29:41.281Z,4.59
2023-03-15T00:32:09.196Z,4.52
2023-03-15T00:34:37.137Z,4.61
2023-03-15T00:37:05.122Z,4.60
2023-03-15T00:39:37.795Z,4.39
2023-03-15T00:42:07.498Z,4.41
2023-03-15T00:44:35.449Z,4.53
2023-03-15T00:47:03.340Z,4.20
2023-03-15T00:49:31.245Z,4.31
2023-03-15T00:51:59.145Z,4.24
2023-03-15T00:54:27.047Z,4.11
2023-03-15T00:56:54.879Z,3.85
2023-03-15T00:59:24.186Z,3.51
2023-03-15T01:01:52.232Z,3.63
2023-03-15T01:04:20.124Z,3.79
2023-03-15T01:06:47.970Z,3.95
2023-03-15T01:09:15.901Z,3.70
2023-03-15T01:11:43.809Z,3.68
2023-03-15T01:14:11.741Z,3.50
2023-03-15T01:16:41.235Z,3.62
2023-03-15T01:19:09.137Z,3.41
2023-03-15T01:21:37.038Z,3.45
2023-03-15T01:24:04.974Z,3.61
2023-03-15T01:26:32.881Z,3.40
2023-03-15T01:29:00.773Z,3.38
2023-03-15T01:31:31.289Z,3.29
2023-03-15T01:34:01.002Z,3.11
2023-03-15T01:36:29.061Z,3.20
2023-03-15T01:38:57.016Z,3.20
2023-03-15T01:41:25.957Z,3.06
2023-03-15T01:43:53.932Z,2.96
2023-03-15T01:46:27.002Z,3.06
2023-03-15T01:49:04.972Z,2.90
2023-03-15T01:51:37.493Z,3.29
2023-03-15T01:54:09.058Z,3.39
2023-03-15T01:56:41.561Z,3.31
2023-03-15T01:59:15.371Z,3.26
2023-03-15T02:01:45.732Z,3.30
2023-03-15T02:04:19.054Z,3.15
2023-03-15T02:06:48.735Z,2.93
2023-03-15T02:09:22.180Z,3.23
2023-03-15T02:11:50.085Z,3.17
2023-03-15T02:14:18.655Z,3.11
2023-03-15T02:16:46.621Z,3.29
2023-03-15T02:19:31.962Z,3.18
2023-03-15T02:22:08.026Z,3.04
2023-03-15T02:24:47.939Z,2.94
2023-03-15T02:27:16.403Z,3.15
2023-03-15T02:29:45.770Z,3.01
2023-03-15T02:32:13.675Z,2.94
2023-03-15T02:34:41.581Z,2.90
2023-03-15T02:37:09.560Z,3.02
2023-03-15T02:39:37.464Z,3.16
2023-03-15T02:42:06.059Z,3.15
2023-03-15T02:44:36.234Z,3.28
2023-03-15T02:47:08.954Z,3.14
2023-03-15T02:49:41.953Z,3.09
2023-03-15T02:52:12.216Z,3.16
2023-03-15T02:54:43.250Z,3.02
2023-03-15T02:57:11.210Z,3.19
2023-03-15T02:59:39.320Z,2.96
2023-03-15T03:02:09.276Z,2.77
2023-03-15T03:04:37.179Z,2.81
2023-03-15T03:07:05.187Z,2.89
2023-03-15T03:09:33.171Z,2.80
2023-03-15T03:12:01.130Z,2.77
2023-03-15T03:14:29.051Z,2.84
2023-03-15T03:16:57.217Z,2.81
2023-03-15T03:19:26.610Z,2.78
2023-03-15T03:21:54.753Z,2.73
2023-03-15T03:24:25.840Z,2.86
2023-03-15T03:26:58.131Z,2.70
2023-03-15T03:29:26.732Z,2.85
2023-03-15T03:31:54.931Z,2.87
2023-03-15T03:34:22.901Z,2.44
2023-03-15T03:36:52.228Z,2.63
2023-03-15T03:39:20.269Z,2.51
2023-03-15T03:41:48.156Z,2.32
2023-03-15T03:44:16.095Z,2.12
2023-03-15T03:46:44.011Z,2.19
2023-03-15T03:49:11.880Z,2.05
2023-03-15T03:51:39.853Z,2.10
2023-03-15T03:54:09.129Z,1.97
2023-03-15T03:56:37.959Z,2.09
2023-03-15T03:59:05.914Z,2.09
2023-03-15T04:01:33.853Z,2.14
2023-03-15T04:04:01.768Z,2.21
2023-03-15T04:06:29.680Z,2.27
2023-03-15T04:08:57.576Z,2.34
2023-03-15T04:11:27.146Z,2.43
2023-03-15T04:13:55.233Z,2.39
2023-03-15T04:16:24.810Z,2.23
2023-03-15T04:18:56.465Z,2.24
2023-03-15T04:21:24.506Z,2.28
2023-03-15T04:23:52.442Z,2.27
2023-03-15T04:26:20.360Z,2.34
2023-03-15T04:28:49.646Z,2.09
2023-03-15T04:31:17.671Z,1.84
2023-03-15T04:33:45.578Z,1.80
2023-03-15T04:36:18.461Z,1.83
2023-03-15T04:38:47.602Z,1.96
2023-03-15T04:41:16.055Z,1.98
2023-03-15T04:43:44.103Z,1.98
2023-03-15T04:46:13.481Z,1.98
2023-03-15T04:48:41.707Z,1.96
2023-03-15T04:51:09.590Z,2.19
2023-03-15T04:53:39.097Z,1.79
2023-03-15T04:56:08.039Z,1.61
2023-03-15T04:58:36.005Z,1.55
2023-03-15T05:01:03.935Z,1.63
2023-03-15T05:03:33.310Z,1.65
2023-03-15T05:06:08.038Z,1.73
2023-03-15T05:08:36.789Z,1.77
2023-03-15T05:11:05.090Z,1.66
2023-03-15T05:13:33.286Z,1.35
2023-03-15T05:16:01.208Z,1.32
2023-03-15T05:18:29.815Z,1.28
2023-03-15T05:20:59.279Z,1.33
2023-03-15T05:23:27.349Z,1.45
2023-03-15T05:25:56.726Z,1.55
2023-03-15T05:28:25.952Z,1.70
2023-03-15T05:30:54.463Z,1.66
2023-03-15T05:33:22.968Z,1.79
2023-03-15T05:35:50.996Z,1.89
2023-03-15T05:38:20.417Z,1.88
2023-03-15T05:40:48.351Z,1.75
2023-03-15T05:43:16.214Z,1.76
2023-03-15T05:45:44.760Z,1.80
2023-03-15T05:48:12.762Z,1.61
2023-03-15T05:50:40.691Z,1.95
2023-03-15T05:53:08.666Z,1.73
2023-03-15T05:55:38.670Z,1.65
2023-03-15T05:58:06.573Z,1.84
2023-03-15T06:00:34.736Z,1.84
2023-03-15T06:03:02.739Z,1.69
2023-03-15T06:05:30.718Z,1.68
2023-03-15T06:07:58.640Z,1.82
2023-03-15T06:10:26.725Z,1.90
2023-03-15T06:12:56.039Z,2.33
2023-03-15T06:15:24.069Z,3.10
2023-03-15T06:17:51.936Z,3.67
2023-03-15T06:20:20.403Z,4.09
2023-03-15T06:22:48.889Z,4.26
2023-03-15T06:25:17.155Z,4.30
2023-03-15T06:27:45.160Z,4.67
2023-03-15T06:30:17.112Z,4.60
2023-03-15T06:32:45.253Z,4.18
2023-03-15T06:35:13.195Z,3.84
2023-03-15T06:37:41.916Z,3.43
2023-03-15T06:40:12.129Z,3.35
2023-03-15T06:42:41.681Z,3.59
2023-03-15T06:45:10.911Z,3.89
2023-03-15T06:47:40.317Z,4.07
2023-03-15T06:50:09.354Z,3.97
2023-03-15T06:52:37.358Z,3.60
2023-03-15T06:55:06.053Z,3.97
2023-03-15T06:57:33.960Z,3.57
2023-03-15T07:00:07.071Z,4.33
2023-03-15T07:02:37.708Z,5.20
2023-03-15T07:05:08.000Z,5.19
2023-03-15T07:07:35.926Z,5.28
2023-03-15T07:10:04.491Z,5.00
2023-03-15T07:12:32.414Z,4.66
2023-03-15T07:15:00.328Z,4.84
2023-03-15T07:17:28.289Z,4.86
2023-03-15T07:19:56.986Z,4.27
2023-03-15T07:22:26.680Z,4.47
2023-03-15T07:24:54.660Z,4.90
2023-03-15T07:27:22.561Z,5.23
2023-03-15T07:29:50.459Z,5.23
2023-03-15T07:32:18.603Z,5.30
2023-03-15T07:34:46.563Z,5.44
2023-03-15T07:37:14.571Z,5.03
2023-03-15T07:39:44.204Z,5.21
2023-03-15T07:42:12.844Z,5.86
2023-03-15T07:44:40.753Z,5.59
2023-03-15T07:47:09.241Z,5.02
2023-03-15T07:49:37.145Z,5.47
2023-03-15T07:52:05.478Z,5.40
2023-03-15T07:54:34.404Z,6.07
2023-03-15T07:57:03.721Z,6.36
2023-03-15T07:59:32.347Z,6.17
2023-03-15T08:02:02.840Z,6.78
2023-03-15T08:04:31.002Z,6.23
2023-03-15T08:06:58.999Z,5.96
2023-03-15T08:09:26.903Z,6.50
2023-03-15T08:11:54.817Z,5.97
2023-03-15T08:14:24.681Z,5.93
2023-03-15T08:16:52.853Z,5.84
2023-03-15T08:19:22.286Z,5.84
2023-03-15T08:21:53.863Z,5.93
2023-03-15T08:24:22.603Z,6.08
2023-03-15T08:26:51.304Z,6.29
2023-03-15T08:29:19.330Z,6.64
2023-03-15T08:31:48.688Z,7.09
2023-03-15T08:34:17.201Z,7.13
2023-03-15T08:36:47.378Z,6.67
2023-03-15T08:39:15.413Z,6.50
2023-03-15T08:41:43.671Z,6.01
2023-03-15T08:44:11.898Z,6.15
2023-03-15T08:46:39.906Z,6.66
2023-03-15T08:49:09.245Z,6.73
2023-03-15T08:51:37.162Z,6.66
2023-03-15T08:54:05.288Z,6.81
2023-03-15T08:56:33.796Z,6.92
2023-03-15T08:59:01.770Z,6.74
2023-03-15T09:01:30.889Z,6.08
2023-03-15T09:03:58.830Z,6.57
2023-03-15T09:06:28.719Z,7.02
2023-03-15T09:08:56.840Z,7.78
2023-03-15T09:11:24.713Z,8.25
2023-03-15T09:13:52.686Z,8.70
2023-03-15T09:16:20.573Z,8.71
2023-03-15T09:18:48.554Z,8.44
2023-03-15T09:21:16.914Z,8.47
2023-03-15T09:23:46.202Z,8.51
2023-03-15T09:26:14.131Z,9.11
2023-03-15T09:28:41.985Z,9.70
2023-03-15T09:31:10.057Z,9.29
2023-03-15T09:33:38.678Z,9.77
2023-03-15T09:36:07.091Z,10.17
2023-03-15T09:38:35.047Z,10.61
2023-03-15T09:41:04.864Z,10.31
2023-03-15T09:43:53.238Z,9.76
2023-03-15T09:46:28.929Z,9.91
2023-03-15T09:49:03.967Z,10.26
2023-03-15T09:51:40.729Z,10.59
2023-03-15T09:54:13.435Z,10.68
2023-03-15T09:56:47.304Z,10.78
2023-03-15T09:59:17.820Z,10.57
2023-03-15T10:01:46.518Z,10.62
2023-03-15T10:04:24.369Z,9.75
2023-03-15T10:06:56.424Z,9.62
2023-03-15T10:09:26.707Z,10.15
2023-03-15T10:12:05.231Z,10.21
2023-03-15T10:15:08.391Z,8.71
2023-03-15T10:17:42.262Z,9.11
2023-03-15T10:20:16.176Z,9.66
2023-03-15T10:22:51.271Z,9.80
2023-03-15T10:25:23.565Z,9.96
2023-03-15T10:27:57.326Z,10.05
2023-03-15T10:30:26.739Z,10.50
2023-03-15T10:33:01.282Z,10.44
2023-03-15T10:35:29.685Z,10.20
2023-03-15T10:37:57.642Z,9.93
2023-03-15T10:40:41.374Z,10.08
2023-03-15T10:43:19.376Z,10.13
2023-03-15T10:46:00.994Z,10.33
2023-03-15T10:48:30.351Z,10.65
2023-03-15T10:50:59.340Z,11.27
2023-03-15T10:53:27.344Z,11.56
2023-03-15T10:56:05.363Z,11.45
2023-03-15T10:58:43.246Z,11.96
2023-03-15T11:01:23.298Z,11.55
2023-03-15T11:04:03.322Z,11.57
2023-03-15T11:06:42.093Z,11.84
2023-03-15T11:09:12.179Z,11.59
2023-03-15T11:11:52.053Z,10.91
2023-03-15T11:14:21.838Z,10.47
2023-03-15T11:16:52.286Z,10.86
2023-03-15T11:19:24.168Z,11.16
2023-03-15T11:21:52.677Z,11.51
2023-03-15T11:24:31.521Z,11.68
2023-03-15T11:27:01.806Z,11.86
2023-03-15T11:29:33.310Z,11.53
2023-03-15T11:32:02.412Z,11.60
2023-03-15T11:34:40.267Z,11.89
2023-03-15T11:37:15.838Z,11.54
2023-03-15T11:39:50.319Z,11.04
2023-03-15T11:42:26.215Z,11.26
2023-03-15T11:44:59.305Z,11.51
2023-03-15T11:47:36.289Z,11.57
2023-03-15T11:50:04.885Z,11.93
2023-03-15T11:52:33.157Z,11.85
2023-03-15T11:55:03.741Z,11.90
2023-03-15T11:57:41.573Z,11.81
2023-03-15T12:00:49.213Z,11.75
2023-03-15T12:03:49.445Z,11.81
2023-03-15T12:06:38.588Z,11.84
2023-03-15T12:09:40.708Z,11.75
2023-03-15T12:12:39.020Z,11.61
2023-03-15T12:15:36.432Z,11.57
2023-03-15T12:18:06.436Z,11.84
2023-03-15T12:20:37.873Z,11.28
2023-03-15T12:23:30.003Z,10.65
2023-03-15T12:26:00.250Z,10.35
2023-03-15T12:28:35.173Z,10.30
2023-03-15T12:31:06.907Z,10.58
2023-03-15T12:33:46.660Z,10.35
2023-03-15T12:36:30.661Z,10.75
2023-03-15T12:39:20.881Z,10.80
2023-03-15T12:41:50.193Z,10.58
2023-03-15T12:44:28.226Z,10.73
2023-03-15T12:47:01.218Z,10.74
2023-03-15T12:49:35.050Z,10.90
2023-03-15T12:52:05.622Z,11.28
2023-03-15T12:54:40.523Z,11.56
2023-03-15T12:57:12.335Z,11.66
2023-03-15T12:59:49.383Z,11.39
2023-03-15T13:02:39.614Z,11.19
2023-03-15T13:05:23.556Z,11.48
2023-03-15T13:07:59.839Z,11.36
2023-03-15T13:10:57.172Z,10.99
2023-03-15T13:13:46.123Z,11.13
2023-03-15T13:16:27.916Z,11.21
2023-03-15T13:19:05.457Z,10.94
2023-03-15T13:21:36.395Z,10.98
2023-03-15T13:24:13.910Z,10.97
2023-03-15T13:26:52.189Z,11.06
2023-03-15T13:29:26.229Z,11.23
2023-03-15T13:32:03.796Z,11.40
2023-03-15T13:34:34.228Z,11.25
2023-03-15T13:37:03.308Z,11.12
2023-03-15T13:39:33.591Z,11.45
2023-03-15T13:42:03.672Z,11.66
2023-03-15T13:44:33.216Z,11.74
2023-03-15T13:47:02.661Z,11.74
2023-03-15T13:49:35.006Z,11.69
2023-03-15T13:52:12.056Z,11.55
2023-03-15T13:54:42.090Z,11.47
2023-03-15T13:57:15.058Z,11.46
2023-03-15T13:59:48.645Z,11.10
2023-03-15T14:02:21.678Z,11.43
2023-03-15T14:04:53.632Z,11.20
2023-03-15T14:07:29.229Z,10.94
2023-03-15T14:10:23.006Z,10.89
2023-03-15T14:12:52.268Z,11.04
2023-03-15T14:15:23.513Z,11.12
2023-03-15T14:18:02.095Z,10.71
2023-03-15T14:20:33.661Z,10.64
2023-03-15T14:23:03.125Z,10.91
2023-03-15T14:25:35.776Z,10.88
2023-03-15T14:28:04.768Z,11.17
2023-03-15T14:30:36.601Z,11.10
2023-03-15T14:33:07.614Z,11.36
2023-03-15T14:35:46.139Z,11.27
2023-03-15T14:38:20.065Z,11.24
2023-03-15T14:40:48.763Z,11.20
2023-03-15T14:43:16.842Z,11.56
2023-03-15T14:45:48.719Z,11.66
2023-03-15T14:48:27.517Z,11.30
2023-03-15T14:50:55.840Z,11.49
2023-03-15T14:53:26.178Z,11.52
2023-03-15T14:55:54.107Z,11.53
2023-03-15T14:58:23.496Z,11.59
2023-03-15T15:00:53.790Z,11.46
2023-03-15T15:03:39.577Z,11.19
2023-03-15T15:06:09.837Z,11.33
2023-03-15T15:08:40.147Z,11.62
2023-03-15T15:11:09.447Z,11.61
2023-03-15T15:13:38.697Z,11.18
2023-03-15T15:16:07.614Z,11.31
2023-03-15T15:18:38.200Z,11.37
2023-03-15T15:21:13.920Z,11.11
2023-03-15T15:23:57.486Z,10.66
2023-03-15T15:26:27.887Z,10.52
2023-03-15T15:28:56.614Z,10.58
2023-03-15T15:31:27.028Z,10.40
2023-03-15T15:33:57.822Z,10.51
2023-03-15T15:36:29.904Z,10.44
2023-03-15T15:39:01.299Z,10.19
2023-03-15T15:41:31.578Z,10.05
2023-03-15T15:43:59.654Z,10.32
2023-03-15T15:46:28.052Z,10.55
2023-03-15T15:48:58.822Z,10.73
2023-03-15T15:51:29.415Z,10.82
2023-03-15T15:53:59.699Z,10.90
2023-03-15T15:56:32.824Z,10.82
2023-03-15T15:59:01.883Z,10.87
2023-03-15T16:01:29.826Z,10.82
2023-03-15T16:03:59.188Z,10.83
2023-03-15T16:06:27.368Z,10.72
2023-03-15T16:08:56.299Z,10.34
2023-03-15T16:11:24.503Z,10.16
2023-03-15T16:13:54.535Z,10.25
2023-03-15T16:16:23.209Z,10.12
2023-03-15T16:18:51.118Z,9.99
2023-03-15T16:21:27.916Z,10.16
2023-03-15T16:24:00.366Z,10.27
2023-03-15T16:26:28.818Z,10.24
2023-03-15T16:28:56.813Z,10.50
2023-03-15T16:31:24.879Z,10.51
2023-03-15T16:33:52.763Z,10.35
2023-03-15T16:36:23.393Z,10.13
2023-03-15T16:38:51.332Z,10.13
2023-03-15T16:41:19.278Z,10.17
2023-03-15T16:43:49.220Z,10.08
2023-03-15T16:46:18.192Z,10.05
2023-03-15T16:48:46.256Z,10.23
2023-03-15T16:51:17.008Z,10.13
2023-03-15T16:53:46.501Z,10.06
2023-03-15T16:56:16.449Z,10.00
2023-03-15T16:58:45.633Z,9.99
2023-03-15T17:01:13.620Z,9.84
2023-03-15T17:03:41.545Z,9.85
2023-03-15T17:06:20.083Z,9.95
2023-03-15T17:08:50.049Z,10.04
2023-03-15T17:11:19.209Z,10.22
2023-03-15T17:13:47.401Z,10.22
2023-03-15T17:16:16.744Z,10.37
2023-03-15T17:18:46.102Z,10.42
2023-03-15T17:21:15.449Z,10.38
2023-03-15T17:23:44.001Z,10.41
2023-03-15T17:26:17.781Z,10.17
2023-03-15T17:28:46.854Z,10.10
2023-03-15T17:31:25.340Z,10.07
2023-03-15T17:33:53.703Z,9.86
2023-03-15T17:36:24.594Z,9.74
2023-03-15T17:38:53.125Z,9.68
2023-03-15T17:41:25.403Z,9.98
2023-03-15T17:43:53.615Z,10.08
2023-03-15T17:46:28.107Z,9.88
2023-03-15T17:48:56.559Z,9.95
2023-03-15T17:51:26.672Z,9.88
2023-03-15T17:53:55.636Z,9.94
2023-03-15T17:56:24.940Z,10.13
2023-03-15T17:58:53.424Z,10.16
2023-03-15T18:01:23.431Z,10.22
2023-03-15T18:03:52.266Z,10.09
2023-03-15T18:06:21.293Z,10.12
2023-03-15T18:08:49.746Z,10.06
2023-03-15T18:11:31.944Z,10.09
2023-03-15T18:13:59.921Z,10.09
2023-03-15T18:16:28.063Z,10.16
2023-03-15T18:18:56.065Z,10.19
2023-03-15T18:21:27.422Z,10.19
2023-03-15T18:23:55.679Z,10.29
2023-03-15T18:26:24.001Z,10.10
2023-03-15T18:28:53.269Z,10.08
2023-03-15T18:31:22.770Z,9.98
2023-03-15T18:33:52.594Z,9.93
2023-03-15T18:36:21.087Z,9.97
2023-03-15T18:38:49.393Z,9.82
2023-03-15T18:41:20.657Z,9.78
2023-03-15T18:43:51.497Z,9.80
2023-03-15T18:46:22.731Z,9.74
2023-03-15T18:48:53.367Z,9.73
2023-03-15T18:51:25.691Z,9.73
2023-03-15T18:53:54.138Z,9.78
2023-03-15T18:56:24.011Z,9.88
2023-03-15T18:58:53.645Z,9.85
2023-03-15T19:01:24.455Z,9.76
2023-03-15T19:03:53.878Z,9.78
2023-03-15T19:06:22.834Z,9.85
2023-03-15T19:08:54.193Z,9.77
2023-03-15T19:11:24.021Z,9.83
2023-03-15T19:13:52.241Z,9.80
2023-03-15T19:16:20.719Z,9.85
2023-03-15T19:18:51.106Z,9.50
2023-03-15T19:21:19.327Z,9.59
2023-03-15T19:23:47.866Z,9.61
2023-03-15T19:26:15.893Z,9.32
2023-03-15T19:28:43.945Z,9.47
2023-03-15T19:31:12.521Z,9.65
2023-03-15T19:33:40.539Z,9.62
2023-03-15T19:36:10.818Z,9.49
2023-03-15T19:38:38.851Z,9.45
2023-03-15T19:41:10.777Z,9.48
2023-03-15T19:43:42.390Z,9.42
2023-03-15T19:46:13.786Z,9.42
2023-03-15T19:48:42.282Z,9.26
2023-03-15T19:51:11.603Z,9.18
2023-03-15T19:53:39.571Z,9.37
2023-03-15T19:56:09.574Z,9.38
2023-03-15T19:58:37.481Z,9.45
2023-03-15T20:01:05.801Z,9.43
2023-03-15T20:03:34.911Z,9.39
2023-03-15T20:06:08.258Z,9.40
2023-03-15T20:08:37.521Z,9.43
2023-03-15T20:11:06.778Z,9.48
2023-03-15T20:13:35.302Z,9.46
2023-03-15T20:16:04.091Z,9.36
2023-03-15T20:18:32.417Z,9.43
2023-03-15T20:21:00.359Z,9.48
2023-03-15T20:23:28.570Z,9.45
2023-03-15T20:26:06.876Z,9.49
2023-03-15T20:28:34.828Z,9.49
2023-03-15T20:31:07.504Z,9.46
2023-03-15T20:33:35.390Z,9.45
2023-03-15T20:36:03.589Z,9.41
2023-03-15T20:38:34.341Z,9.38
2023-03-15T20:41:02.462Z,9.37
2023-03-15T20:43:32.948Z,9.29
2023-03-15T20:46:04.400Z,9.17
2023-03-15T20:48:35.036Z,9.37
2023-03-15T20:51:07.171Z,9.29
2023-03-15T20:53:36.525Z,9.36
2023-03-15T20:56:06.401Z,9.38
2023-03-15T20:58:35.737Z,9.25
2023-03-15T21:01:07.637Z,9.26
2023-03-15T21:03:35.936Z,9.11
2023-03-15T21:06:06.149Z,9.22
2023-03-15T21:08:34.928Z,9.23
2023-03-15T21:11:03.382Z,9.26
2023-03-15T21:13:31.446Z,9.33
2023-03-15T21:16:04.060Z,9.29
2023-03-15T21:18:33.026Z,9.37
2023-03-15T21:21:02.405Z,9.19
2023-03-15T21:23:31.555Z,9.26
2023-03-15T21:26:02.022Z,9.19
2023-03-15T21:28:30.693Z,9.04
2023-03-15T21:31:00.507Z,8.77
2023-03-15T21:33:31.076Z,8.89
2023-03-15T21:36:00.484Z,9.01
2023-03-15T21:38:29.071Z,9.10
2023-03-15T21:40:59.335Z,9.14
2023-03-15T21:43:28.614Z,9.14
2023-03-15T21:45:56.918Z,9.14
2023-03-15T21:48:26.354Z,9.14
2023-03-15T21:50:54.559Z,9.16
2023-03-15T21:53:22.772Z,9.12
2023-03-15T21:55:50.834Z,9.05
2023-03-15T21:58:19.078Z,9.10
2023-03-15T22:00:47.024Z,9.14
2023-03-15T22:03:17.817Z,9.10
2023-03-15T22:05:48.059Z,9.12
2023-03-15T22:08:15.954Z,8.95
2023-03-15T22:10:43.906Z,9.04
2023-03-15T22:13:11.782Z,9.02
2023-03-15T22:15:39.677Z,8.99
2023-03-15T22:18:07.623Z,9.04
2023-03-15T22:20:35.506Z,8.94
2023-03-15T22:23:05.004Z,8.91
2023-03-15T22:25:33.041Z,8.99
2023-03-15T22:28:01.805Z,8.81
2023-03-15T22:30:29.744Z,8.95
2023-03-15T22:32:57.734Z,8.97
2023-03-15T22:35:25.839Z,8.90
2023-03-15T22:37:56.553Z,8.96
2023-03-15T22:40:27.951Z,8.90
2023-03-15T22:42:57.514Z,8.88
2023-03-15T22:45:26.075Z,8.99
2023-03-15T22:47:54.308Z,8.88
2023-03-15T22:50:22.282Z,8.96
2023-03-15T22:52:51.857Z,9.05
2023-03-15T22:55:20.701Z,9.07
2023-03-15T22:57:50.054Z,9.01
2023-03-15T23:00:22.243Z,9.06
2023-03-15T23:02:50.712Z,8.96
2023-03-15T23:05:19.609Z,8.97
2023-03-15T23:07:47.788Z,9.08
2023-03-15T23:10:16.353Z,8.94
2023-03-15T23:12:44.278Z,9.00
2023-03-15T23:15:15.194Z,9.04
2023-03-15T23:17:46.663Z,9.11
2023-03-15T23:20:17.210Z,9.02
2023-03-15T23:22:45.841Z,9.02
2023-03-15T23:25:15.700Z,9.14
2023-03-15T23:27:43.590Z,9.11
2023-03-15T23:30:14.379Z,9.11
2023-03-15T23:32:42.969Z,9.10
2023-03-15T23:35:13.268Z,9.08
2023-03-15T23:37:41.301Z,9.05
2023-03-15T23:40:15.232Z,9.00
2023-03-15T23:42:44.005Z,9.10
2023-03-15T23:45:15.293Z,9.04
2023-03-15T23:47:43.938Z,9.05
2023-03-15T23:50:13.856Z,9.14
2023-03-15T23:52:42.291Z,9.13
2023-03-15T23:55:11.129Z,9.14
2023-03-15T23:57:39.024Z,9.15
